Skip Navigation Links
NOAA logo - Click to go to the NOAA homepage
NOAA's National Weather Service
Alaska Aviation Weather Unit
  NWS logo - Click to go to the NWS homepage
Left Navbar Graphic     01 AKDT = 09 GMT

   
NOAA is celebrating 200 years of science, service, and stewardship. Visit the NOAA 200th celebration Web site to learn more.
USA.gov is the U.S. Government's official Web portal to all Federal, state and local government Web resources and services.
Facebook
NWS on Facebook

Important Change Regarding the AAWU Web Presence

 

Over the last several months, the AAWU has been working to navigate its webpages to a nationally supported server. Security, as well as other needs, have necessitated the change.  We have been given an extension for the site changeover while we diligently work at addressing feedback received. As of July 14, 2017, aawu.arh.noaa.gov will be discontinued. The new AAWU web address is weather.gov/aawu. It is now live and will run in-parallel with the old site until it is discontinued on July 14, 2017. Please continue to send any feedback or questions regarding the new webpages to nws.ar.aawu.webauthors@noaa.gov.  Thank you for your patience during this time of transition.
AAWU Home :: Display TAF Add Bookmark
SPECI PAKP 190329Z AUTO 17006KT 8SM RA BKN028 OVC036 07/04 A2955 RMK AO2
     P0005=

SPECI PAKP 190340Z AUTO 00000KT 5SM RA BR BKN030 OVC036 06/04 A2955
 RMK AO2 P0007=

METAR PAKP 190356Z AUTO 16004KT 10SM -RA OVC033 07/04 A2955 RMK AO2
 SLP035 P0008 T00670039=

METAR PAKP 190456Z AUTO 21008KT 10SM FEW037 BKN048 07/04 A2955 RMK AO2
     RAE04 SLP037 P0000 T00670044=

METAR PAKP 190556Z AUTO 22004KT 10SM -RA BKN039 OVC050 06/04 A2957
 RMK AO2 RAB03E15B42 SLP043 P0000 60010 T00560039 10100 20056
 53011=

METAR PAKP 190656Z AUTO 31003KT 10SM SCT039 BKN090 OVC100 05/03
 A2958 RMK AO2 RAE14 SLP046 P0000 T00500033=

METAR PAKP 190756Z AUTO 00000KT 10SM FEW034 BKN045 OVC060 05/04 A2959
     RMK AO2 SLP050 T00500039=

SPECI PAKP 190824Z AUTO 23003KT 10SM -RA BKN026 OVC035 06/03 A2960
 RMK AO2 RAB0758 P0000=

METAR PAKP 190856Z AUTO VRB06KT 10SM -RA SCT012 BKN026 OVC038 04/03
     A2962 RMK AO2 RAB0758 SLP058 P0002 60002 T00390028 401000033
     53014=

SPECI PAKP 190905Z AUTO 08006KT 10SM -RA BKN012 OVC026 04/02 A2962 RMK
     AO2 P0000=


NOAA's National Weather Service
Alaska Aviation Weather Unit
6930 Sand Lake Road
Anchorage, AK 99502-1845
Disclaimer
Credits
Glossary
Privacy Policy
About Us
Career Opportunities
Contact AAWU Internet Services Site last modified: April, 17th 2012